Northeast, Indiana
Current Conditions -  °F | °C
As of 5:53 PM on Saturday 25 Oct 2014 (Local Time) from KBMG Reporting Station
Clear Clear  
Wind Chill: 76°   Ceiling: Unl
Heat Index: 76°   Visibility: 9mi
Dew Point: 50°   Wind: 10mph
Humidity: 40%   Direction: 270°W
Pressure: 29.96"   Gusts: NA
Location:  38.6433°N, 86.4481°W
Report Text: KBMG 252153Z 27009KT 9SM CLR 24/10 A2996 RMK AO2 SLP140 T02440100
Loading
Personal Weather Stations






























Interactive Weather Map
Tropical Storm Tracking
New forecast layout! Learn more

10-Day Weather Forecast

Advertisements
Track Severe Weather on mobile